Time;durP1;ratioP1;P1;durP2;ratioP2;P2;SDS_P1;SDS_P2;PMS_P1;PMS_P2;Temp;Humidity;BMP_temperature;BMP_pressure;BME280_temperature;BME280_humidity;BME280_pressure;Samples;Min_cycle;Max_cycle;Signal;HPM_P1;HPM_P2
2021/05/27 00:00:21;;;;;;;17.15;9.32;;;10.50;99.90;;;;;;4965421;29;20034;-81
2021/05/27 00:02:47;;;;;;;21.67;10.10;;;10.50;99.90;;;;;;4965286;29;20039;-81
2021/05/27 00:05:33;;;;;;;18.13;9.57;;;10.50;99.90;;;;;;4950125;29;20047;-81
2021/05/27 00:08:00;;;;;;;16.27;8.90;;;10.50;99.90;;;;;;4931573;29;20063;-81
2021/05/27 00:10:28;;;;;;;18.83;10.13;;;10.40;99.90;;;;;;4932173;29;20082;-81
2021/05/27 00:12:54;;;;;;;19.70;10.07;;;10.40;99.90;;;;;;4931894;29;20050;-81
2021/05/27 00:15:23;;;;;;;17.63;8.90;;;10.40;99.90;;;;;;4947761;29;20076;-81
2021/05/27 00:17:49;;;;;;;18.73;9.63;;;10.40;99.90;;;;;;4931957;29;20035;-81
2021/05/27 00:20:15;;;;;;;21.40;9.57;;;10.40;99.90;;;;;;4947646;29;20044;-82
2021/05/27 00:22:40;;;;;;;24.88;10.18;;;10.30;99.90;;;;;;4931683;29;20092;-82
2021/05/27 00:25:08;;;;;;;17.80;9.35;;;10.30;99.90;;;;;;4931685;29;20044;-82
2021/05/27 00:27:33;;;;;;;23.20;10.40;;;10.20;99.90;;;;;;4931647;29;20040;-81
2021/05/27 00:29:59;;;;;;;20.80;9.50;;;10.20;99.90;;;;;;4947706;29;20038;-82
2021/05/27 00:32:25;;;;;;;21.05;9.90;;;10.20;99.90;;;;;;4931733;29;20078;-81
2021/05/27 00:34:50;;;;;;;16.52;9.18;;;10.20;99.90;;;;;;4947351;29;20051;-81
2021/05/27 00:37:20;;;;;;;21.35;8.35;;;10.10;99.90;;;;;;4931505;29;20118;-81
2021/05/27 00:39:45;;;;;;;24.33;9.80;;;10.20;99.90;;;;;;4931508;29;20068;-82
2021/05/27 00:42:11;;;;;;;20.13;8.18;;;10.20;99.90;;;;;;4931639;29;20291;-82
2021/05/27 00:44:37;;;;;;;17.65;7.70;;;10.10;99.90;;;;;;4934823;29;20050;-82
2021/05/27 00:47:09;;;;;;;22.50;7.68;;;10.20;99.90;;;;;;4964143;29;20044;-80
2021/05/27 00:49:35;;;;;;;12.35;7.22;;;10.10;99.90;;;;;;4964511;29;20087;-80
2021/05/27 00:52:01;;;;;;;17.17;8.38;;;10.10;99.90;;;;;;4963388;28;20031;-81
2021/05/27 00:54:27;;;;;;;19.80;8.55;;;10.10;99.90;;;;;;4964097;29;20023;-81
2021/05/27 00:56:55;;;;;;;16.23;8.68;;;10.10;99.90;;;;;;4963860;29;20047;-81
2021/05/27 00:59:21;;;;;;;15.88;8.50;;;10.00;99.90;;;;;;4964313;29;20042;-82
2021/05/27 01:01:52;;;;;;;22.25;8.25;;;10.00;99.90;;;;;;4964003;29;20020;-82
2021/05/27 01:04:19;;;;;;;20.20;9.05;;;10.00;99.90;;;;;;4963986;29;20039;-81
2021/05/27 01:06:45;;;;;;;15.95;7.47;;;10.00;99.90;;;;;;4963652;29;20071;-82
2021/05/27 01:09:11;;;;;;;22.13;9.63;;;9.90;99.90;;;;;;4947982;29;20091;-81
2021/05/27 01:11:37;;;;;;;18.27;8.07;;;9.90;99.90;;;;;;4964069;29;20180;-82
2021/05/27 01:14:14;;;;;;;20.45;8.50;;;9.90;99.90;;;;;;4963915;29;20024;-83
2021/05/27 01:16:41;;;;;;;19.73;8.43;;;9.90;99.90;;;;;;4963885;29;20507;-82
2021/05/27 01:19:06;;;;;;;20.92;8.13;;;9.80;99.90;;;;;;4963941;29;20024;-83
2021/05/27 01:21:33;;;;;;;18.40;8.52;;;9.80;99.90;;;;;;4963967;29;20028;-82
2021/05/27 01:24:00;;;;;;;20.77;8.15;;;9.80;99.90;;;;;;4963646;29;20027;-82
2021/05/27 01:26:27;;;;;;;23.88;8.43;;;9.70;99.90;;;;;;4947614;29;20031;-83
2021/05/27 01:28:53;;;;;;;20.85;9.23;;;9.70;99.90;;;;;;4963872;29;20122;-83
2021/05/27 01:31:19;;;;;;;22.48;8.45;;;9.70;99.90;;;;;;4949088;29;20087;-82
2021/05/27 01:33:46;;;;;;;17.20;7.63;;;9.70;99.90;;;;;;4932058;29;20040;-81
2021/05/27 01:36:11;;;;;;;18.85;7.30;;;9.70;99.90;;;;;;4947359;29;20060;-83
2021/05/27 01:38:38;;;;;;;18.92;8.52;;;9.60;99.90;;;;;;4931718;29;20035;-83
2021/05/27 01:41:07;;;;;;;19.33;9.40;;;9.60;99.90;;;;;;4947694;29;20369;-82
2021/05/27 01:43:33;;;;;;;19.20;7.75;;;9.60;99.90;;;;;;4944179;29;20044;-80
2021/05/27 01:45:59;;;;;;;26.85;9.63;;;9.50;99.90;;;;;;4944098;29;20051;-81
2021/05/27 01:48:25;;;;;;;19.67;7.55;;;9.50;99.90;;;;;;4944304;29;20064;-82
2021/05/27 01:50:51;;;;;;;18.35;6.60;;;9.50;99.90;;;;;;4928380;29;20028;-82
2021/05/27 01:53:22;;;;;;;19.13;7.25;;;9.50;99.90;;;;;;4928263;29;20036;-82
2021/05/27 01:55:49;;;;;;;16.67;7.45;;;9.50;99.90;;;;;;4929521;29;20038;-82
2021/05/27 01:58:16;;;;;;;18.33;7.75;;;9.50;99.90;;;;;;4928291;29;20028;-82
2021/05/27 02:00:45;;;;;;;17.52;7.43;;;9.50;99.90;;;;;;4929748;29;20040;-83
2021/05/27 02:03:13;;;;;;;19.70;8.68;;;9.40;99.90;;;;;;4944104;29;20040;-82
2021/05/27 02:05:43;;;;;;;23.35;9.38;;;9.40;99.90;;;;;;4928162;29;20115;-82
2021/05/27 02:08:11;;;;;;;27.10;10.45;;;9.40;99.90;;;;;;4927770;29;20100;-83
2021/05/27 02:10:45;;;;;;;21.90;8.80;;;9.40;99.90;;;;;;4929237;29;20385;-83
2021/05/27 02:13:10;;;;;;;22.58;8.80;;;9.40;99.90;;;;;;4943819;29;20032;-82
2021/05/27 02:15:37;;;;;;;19.08;9.75;;;9.40;99.90;;;;;;4943915;29;20035;-82
2021/05/27 02:18:03;;;;;;;21.70;9.45;;;9.40;99.90;;;;;;4943976;29;20043;-84
2021/05/27 02:20:28;;;;;;;19.20;8.02;;;9.30;99.90;;;;;;4927993;29;20059;-82
2021/05/27 02:22:55;;;;;;;32.15;9.35;;;9.30;99.90;;;;;;4943690;29;20024;-82
2021/05/27 02:25:55;;;;;;;18.63;9.18;;;9.30;99.90;;;;;;4952714;29;20050;-81
2021/05/27 02:28:44;;;;;;;25.63;9.65;;;9.30;99.90;;;;;;4945039;29;20096;-83
2021/05/27 02:31:12;;;;;;;27.35;9.98;;;9.30;99.90;;;;;;4948464;29;20038;-83
2021/05/27 02:33:45;;;;;;;26.63;10.55;;;9.30;99.90;;;;;;4946758;29;20032;-83
2021/05/27 02:36:27;;;;;;;24.55;10.10;;;9.30;99.90;;;;;;4948812;29;20032;-85
2021/05/27 02:38:55;;;;;;;26.02;9.43;;;9.30;99.90;;;;;;4946964;29;20432;-83
2021/05/27 02:41:21;;;;;;;23.13;9.18;;;9.30;99.90;;;;;;4946838;29;20027;-82
2021/05/27 02:43:50;;;;;;;23.60;8.98;;;9.30;99.90;;;;;;4946576;29;20024;-84
2021/05/27 02:46:18;;;;;;;23.20;9.40;;;9.30;99.90;;;;;;4946674;29;20067;-83
2021/05/27 02:48:50;;;;;;;23.40;8.07;;;9.30;99.90;;;;;;4962649;29;20038;-82
2021/05/27 02:51:16;;;;;;;17.08;8.00;;;9.30;99.90;;;;;;4946762;29;20028;-83
2021/05/27 02:53:41;;;;;;;21.30;7.88;;;9.30;99.90;;;;;;4962509;29;20484;-82
2021/05/27 02:56:08;;;;;;;17.80;8.45;;;9.30;99.90;;;;;;4962369;29;20031;-82
2021/05/27 02:58:40;;;;;;;20.50;8.18;;;9.30;99.90;;;;;;4962817;29;20059;-82
2021/05/27 03:01:08;;;;;;;21.65;9.85;;;9.30;99.90;;;;;;4962874;29;20436;-83
2021/05/27 03:03:38;;;;;;;20.83;8.93;;;9.30;99.90;;;;;;4962594;29;20056;-83
2021/05/27 03:06:04;;;;;;;18.42;8.40;;;9.30;99.90;;;;;;4970861;23;20075;-83
2021/05/27 03:08:33;;;;;;;23.75;9.73;;;9.30;99.90;;;;;;4966231;29;20043;-83
2021/05/27 03:10:59;;;;;;;25.60;8.82;;;9.30;99.90;;;;;;4950037;29;20039;-84
2021/05/27 03:13:30;;;;;;;24.50;9.63;;;9.20;99.90;;;;;;4950762;29;20031;-85
2021/05/27 03:15:56;;;;;;;22.50;9.70;;;9.30;99.90;;;;;;4951911;29;20027;-84
2021/05/27 03:18:27;;;;;;;25.80;10.43;;;9.20;99.90;;;;;;4969954;29;20062;-85
2021/05/27 03:20:54;;;;;;;27.50;9.90;;;9.20;99.90;;;;;;4954091;29;20111;-86
2021/05/27 03:23:20;;;;;;;21.42;10.55;;;9.20;99.90;;;;;;4953756;29;20055;-83
2021/05/27 03:25:46;;;;;;;21.88;9.55;;;9.20;99.90;;;;;;4953648;29;20031;-87
2021/05/27 03:28:12;;;;;;;22.42;9.85;;;9.20;99.90;;;;;;4953837;29;20053;-83
2021/05/27 03:30:41;;;;;;;25.85;9.90;;;9.20;99.90;;;;;;4954167;29;20027;-84
2021/05/27 03:33:09;;;;;;;27.20;9.38;;;9.20;99.90;;;;;;4953779;29;20034;-85
2021/05/27 03:35:34;;;;;;;20.58;9.80;;;9.20;99.90;;;;;;4953327;29;20027;-84
2021/05/27 03:38:02;;;;;;;23.35;10.27;;;9.20;99.90;;;;;;4953426;29;20074;-83
2021/05/27 03:40:29;;;;;;;20.88;9.18;;;9.20;99.90;;;;;;4953557;29;20090;-84
2021/05/27 03:42:56;;;;;;;23.38;10.73;;;9.20;99.90;;;;;;4953033;29;20019;-84
2021/05/27 03:45:32;;;;;;;24.65;9.80;;;9.20;99.90;;;;;;4953104;29;20035;-87
2021/05/27 03:48:07;;;;;;;25.55;9.85;;;9.20;99.90;;;;;;4954201;29;20051;-85
2021/05/27 03:50:33;;;;;;;24.27;10.00;;;9.20;99.90;;;;;;4969166;29;20035;-86
2021/05/27 03:53:01;;;;;;;24.55;8.95;;;9.20;99.90;;;;;;4952894;29;20050;-86
2021/05/27 03:55:28;;;;;;;20.42;9.77;;;9.20;99.90;;;;;;4953087;29;20027;-85
2021/05/27 03:57:54;;;;;;;23.23;9.05;;;9.20;99.90;;;;;;4952853;29;20058;-84
2021/05/27 04:09:11;;;;;;;17.45;8.40;;;9.20;99.90;;;;;;4910151;29;20045;-86
2021/05/27 04:11:36;;;;;;;26.48;9.15;;;9.20;99.90;;;;;;4910025;29;20044;-85
2021/05/27 04:14:02;;;;;;;18.98;8.32;;;9.10;99.90;;;;;;4909748;29;20048;-86
2021/05/27 04:16:28;;;;;;;20.92;8.18;;;9.20;99.90;;;;;;4909149;29;20035;-83
2021/05/27 04:18:53;;;;;;;19.85;9.15;;;9.20;99.90;;;;;;4893745;29;20096;-89
2021/05/27 04:21:19;;;;;;;19.10;8.65;;;9.20;99.90;;;;;;4911832;29;20059;-84
2021/05/27 04:23:45;;;;;;;20.40;8.45;;;9.20;99.90;;;;;;4905697;29;20044;-84
2021/05/27 04:26:13;;;;;;;17.85;8.43;;;9.20;99.90;;;;;;4893368;29;20033;-83
2021/05/27 04:28:40;;;;;;;22.58;8.68;;;9.20;99.90;;;;;;4892645;29;20045;-84
2021/05/27 04:31:15;;;;;;;14.32;7.80;;;9.20;99.90;;;;;;4893885;29;20075;-83
2021/05/27 04:33:53;;;;;;;23.23;7.90;;;9.20;99.90;;;;;;4909148;29;20031;-84
2021/05/27 04:36:20;;;;;;;24.05;8.95;;;9.20;99.90;;;;;;4949339;29;20035;-87
2021/05/27 04:38:47;;;;;;;19.13;8.07;;;9.20;99.90;;;;;;4950572;29;20043;-84
2021/05/27 04:41:13;;;;;;;18.90;8.75;;;9.20;99.90;;;;;;4950430;29;20039;-85
2021/05/27 04:43:40;;;;;;;18.33;7.57;;;9.20;99.90;;;;;;4951334;29;20031;-84
2021/05/27 04:46:09;;;;;;;16.23;7.65;;;9.20;99.90;;;;;;4950995;29;20126;-83
2021/05/27 04:48:35;;;;;;;23.13;8.57;;;9.20;99.90;;;;;;4967149;29;20036;-84
2021/05/27 04:51:01;;;;;;;25.58;7.47;;;9.20;99.90;;;;;;4967105;29;20286;-86
2021/05/27 04:53:27;;;;;;;19.92;7.70;;;9.30;99.90;;;;;;4951377;29;20051;-85
2021/05/27 04:56:06;;;;;;;17.48;7.60;;;9.20;99.90;;;;;;4950621;29;20035;-85
2021/05/27 04:58:32;;;;;;;17.15;7.80;;;9.30;99.90;;;;;;4949881;29;20106;-85
2021/05/27 05:00:59;;;;;;;18.80;7.18;;;9.30;99.90;;;;;;4949383;29;20031;-87
2021/05/27 05:03:25;;;;;;;22.33;7.13;;;9.30;99.90;;;;;;4961815;28;20028;-85
2021/05/27 05:05:53;;;;;;;23.80;8.02;;;9.30;99.90;;;;;;4944433;29;20034;-88
2021/05/27 05:08:19;;;;;;;18.90;7.70;;;9.30;99.90;;;;;;4958843;29;20051;-84
2021/05/27 05:10:45;;;;;;;24.00;7.53;;;9.30;99.90;;;;;;4944211;29;20104;-85
2021/05/27 05:13:11;;;;;;;18.85;8.38;;;9.30;99.90;;;;;;4961232;29;20035;-85
2021/05/27 05:15:41;;;;;;;18.88;7.75;;;9.30;99.90;;;;;;4938239;29;20102;-90
2021/05/27 05:18:08;;;;;;;;;;;9.30;99.90;;;;;;4919063;29;20111;-90
2021/05/27 05:20:36;;;;;;;18.95;7.35;;;9.30;99.90;;;;;;4929745;29;19914;-90
2021/05/27 05:23:03;;;;;;;17.90;7.95;;;9.30;99.90;;;;;;4927920;29;20032;-86
2021/05/27 05:25:30;;;;;;;21.50;7.57;;;9.30;99.90;;;;;;4938054;29;20093;-87
2021/05/27 05:27:56;;;;;;;21.17;8.55;;;9.30;99.90;;;;;;4915575;29;20054;-85
2021/05/27 05:30:23;;;;;;;26.23;9.02;;;9.30;99.90;;;;;;4948413;29;20111;-87
2021/05/27 05:32:50;;;;;;;22.67;8.23;;;9.30;99.90;;;;;;4915303;29;20040;-85
2021/05/27 05:35:18;;;;;;;21.10;8.25;;;9.30;99.90;;;;;;4930876;29;20035;-85
2021/05/27 05:37:44;;;;;;;15.57;7.45;;;9.30;99.90;;;;;;4915458;29;20035;-88
2021/05/27 05:40:11;;;;;;;20.20;7.03;;;9.30;99.90;;;;;;4915433;29;20043;-85
2021/05/27 05:42:39;;;;;;;19.77;7.22;;;9.30;99.90;;;;;;4930917;29;20038;-84
2021/05/27 05:45:06;;;;;;;22.45;8.50;;;9.30;99.90;;;;;;4931068;29;20036;-84
2021/05/27 05:47:32;;;;;;;18.88;7.18;;;9.30;99.90;;;;;;4931025;29;20112;-87
2021/05/27 05:49:58;;;;;;;21.05;7.18;;;9.40;99.90;;;;;;4948233;29;20024;-85
2021/05/27 05:52:23;;;;;;;19.98;8.13;;;9.30;99.90;;;;;;4946907;29;20051;-85
2021/05/27 05:54:50;;;;;;;19.63;8.02;;;9.40;99.90;;;;;;4947092;29;20104;-87
2021/05/27 05:57:16;;;;;;;17.48;6.70;;;9.40;99.90;;;;;;4931022;29;20046;-85
2021/05/27 05:59:41;;;;;;;16.38;7.25;;;9.40;99.90;;;;;;4930871;29;20027;-85
2021/05/27 06:02:07;;;;;;;15.75;6.57;;;9.40;99.90;;;;;;4947765;29;20043;-82
2021/05/27 06:04:35;;;;;;;17.35;7.88;;;9.40;99.90;;;;;;4931095;29;20101;-85
2021/05/27 06:07:21;;;;;;;17.27;7.63;;;9.50;99.90;;;;;;4940424;29;20052;-83
2021/05/27 06:09:46;;;;;;;17.95;7.07;;;9.40;99.90;;;;;;4943885;29;20043;-86
2021/05/27 06:12:12;;;;;;;18.80;8.02;;;9.50;99.90;;;;;;4927769;29;20064;-84
2021/05/27 06:14:38;;;;;;;19.40;7.70;;;9.50;99.90;;;;;;4911957;29;20028;-85
2021/05/27 06:17:03;;;;;;;18.23;7.90;;;9.50;99.90;;;;;;4943519;29;20111;-84
2021/05/27 06:19:29;;;;;;;19.10;7.43;;;9.50;99.90;;;;;;4928039;29;20066;-85
2021/05/27 06:22:06;;;;;;;20.38;6.43;;;9.50;99.90;;;;;;4912772;29;20032;-83
2021/05/27 06:24:43;;;;;;;22.02;7.10;;;9.50;99.90;;;;;;4913296;29;20544;-84
2021/05/27 06:27:09;;;;;;;19.00;6.13;;;9.50;99.90;;;;;;4927561;29;20048;-86
2021/05/27 06:29:35;;;;;;;19.15;6.68;;;9.50;99.90;;;;;;4927691;29;20033;-87
2021/05/27 06:32:00;;;;;;;22.35;8.85;;;9.50;99.90;;;;;;4927508;29;20043;-86
2021/05/27 06:34:26;;;;;;;20.30;7.38;;;9.50;99.90;;;;;;4927811;29;20036;-86
2021/05/27 06:36:51;;;;;;;18.75;8.13;;;9.50;99.90;;;;;;4927578;29;20040;-85
2021/05/27 06:39:17;;;;;;;15.15;7.78;;;9.60;99.90;;;;;;4927832;29;20430;-85
2021/05/27 06:41:42;;;;;;;24.85;7.90;;;9.50;99.90;;;;;;4927693;29;20040;-85
2021/05/27 06:44:08;;;;;;;18.92;7.43;;;9.50;99.90;;;;;;4927395;29;20049;-85
2021/05/27 06:46:34;;;;;;;25.23;7.72;;;9.50;99.90;;;;;;4927251;29;20135;-85
2021/05/27 06:49:00;;;;;;;15.15;7.30;;;9.50;99.90;;;;;;4927561;29;20044;-85
2021/05/27 06:51:26;;;;;;;15.70;6.55;;;9.50;99.90;;;;;;4945738;29;20039;-86
2021/05/27 06:53:52;;;;;;;16.65;6.00;;;9.50;99.90;;;;;;4915526;29;20064;-85
2021/05/27 06:56:27;;;;;;;16.85;7.65;;;9.50;99.90;;;;;;4916678;29;20075;-85
2021/05/27 06:58:52;;;;;;;16.23;6.78;;;9.50;99.90;;;;;;4931212;29;20044;-86
2021/05/27 07:01:18;;;;;;;19.00;6.13;;;9.60;99.90;;;;;;4931169;29;20032;-86
2021/05/27 07:03:43;;;;;;;14.45;6.40;;;9.60;99.90;;;;;;4915233;29;20488;-87
2021/05/27 07:06:09;;;;;;;14.00;6.10;;;9.60;99.90;;;;;;4916736;29;20071;-88
2021/05/27 07:08:36;;;;;;;18.23;5.63;;;9.60;99.90;;;;;;4950065;29;20036;-87
2021/05/27 07:11:02;;;;;;;14.32;5.32;;;9.70;99.90;;;;;;4951097;29;20051;-87
2021/05/27 07:13:28;;;;;;;12.23;5.60;;;9.60;99.90;;;;;;4949768;29;20036;-88
2021/05/27 07:15:53;;;;;;;14.52;4.90;;;9.70;99.90;;;;;;4934180;29;20032;-86
2021/05/27 07:18:19;;;;;;;13.45;5.93;;;9.70;99.90;;;;;;4934026;29;20035;-86
2021/05/27 07:20:45;;;;;;;17.33;5.00;;;9.70;99.90;;;;;;4933927;29;20039;-84
2021/05/27 07:23:10;;;;;;;14.48;5.07;;;9.70;99.90;;;;;;4949784;29;20039;-88
2021/05/27 07:25:36;;;;;;;13.40;4.32;;;9.80;99.90;;;;;;4940068;29;20024;-86
2021/05/27 07:28:03;;;;;;;13.30;4.60;;;9.80;99.90;;;;;;4930724;29;20048;-88
2021/05/27 07:30:29;;;;;;;14.15;4.28;;;9.80;99.90;;;;;;4914949;29;20032;-87
2021/05/27 07:32:56;;;;;;;15.02;4.03;;;9.90;99.90;;;;;;4914951;29;20130;-88
2021/05/27 07:35:22;;;;;;;14.90;3.90;;;9.80;99.90;;;;;;4914615;29;20095;-85
2021/05/27 07:37:48;;;;;;;15.07;4.20;;;9.80;99.90;;;;;;4914758;29;20032;-87
2021/05/27 07:40:14;;;;;;;16.15;3.65;;;9.80;99.90;;;;;;4914899;29;20043;-86
2021/05/27 07:42:40;;;;;;;13.38;4.28;;;9.80;99.90;;;;;;4933345;29;20036;-86
2021/05/27 07:45:07;;;;;;;10.98;3.05;;;9.80;99.90;;;;;;4933856;29;20027;-85
2021/05/27 07:47:34;;;;;;;10.85;4.07;;;9.80;99.90;;;;;;4949162;29;20075;-86
2021/05/27 07:50:00;;;;;;;12.98;4.40;;;9.80;99.90;;;;;;4933479;29;20219;-84
2021/05/27 07:52:29;;;;;;;11.95;4.07;;;9.80;99.90;;;;;;4933445;29;20040;-86
2021/05/27 07:54:55;;;;;;;10.75;4.13;;;9.80;99.90;;;;;;4933474;29;20065;-85
2021/05/27 07:57:21;;;;;;;11.68;4.05;;;9.80;99.90;;;;;;4933373;29;20038;-87
2021/05/27 07:59:47;;;;;;;13.80;4.30;;;9.70;99.90;;;;;;4949288;29;20472;-85
2021/05/27 08:02:13;;;;;;;11.30;4.15;;;9.80;99.90;;;;;;4917185;29;20046;-85
2021/05/27 08:04:42;;;;;;;9.88;3.40;;;9.80;99.90;;;;;;4932979;29;20039;-85
2021/05/27 08:07:11;;;;;;;11.43;4.05;;;9.80;99.90;;;;;;4917019;29;20058;-85
2021/05/27 08:09:38;;;;;;;13.10;3.70;;;9.70;99.90;;;;;;4950111;29;20036;-84
2021/05/27 08:12:05;;;;;;;12.30;3.67;;;9.80;99.90;;;;;;4933229;29;20044;-88
2021/05/27 08:14:31;;;;;;;14.48;5.38;;;9.80;99.90;;;;;;4950290;29;20544;-88
2021/05/27 08:16:56;;;;;;;19.00;4.25;;;9.70;99.90;;;;;;4917456;29;20028;-85
2021/05/27 08:19:22;;;;;;;13.13;3.50;;;9.80;99.90;;;;;;4950281;29;20091;-87
2021/05/27 08:21:48;;;;;;;13.70;4.75;;;9.80;99.90;;;;;;4950015;29;20048;-86
2021/05/27 08:24:13;;;;;;;11.23;3.60;;;9.80;99.90;;;;;;4948407;29;20059;-87
2021/05/27 08:26:39;;;;;;;11.55;3.65;;;9.80;99.90;;;;;;4913774;29;20521;-86
2021/05/27 08:29:04;;;;;;;12.25;3.78;;;9.90;99.90;;;;;;4913811;29;20028;-87
2021/05/27 08:31:31;;;;;;;11.98;3.65;;;9.80;99.90;;;;;;4913841;29;20036;-84
2021/05/27 08:33:57;;;;;;;10.27;3.10;;;9.90;99.90;;;;;;4913515;29;20048;-86
2021/05/27 08:36:23;;;;;;;9.80;3.15;;;9.90;99.90;;;;;;4913566;29;20043;-86
2021/05/27 08:38:49;;;;;;;10.30;3.50;;;10.00;99.90;;;;;;4929376;29;20104;-84
2021/05/27 08:41:18;;;;;;;9.88;3.78;;;10.00;99.90;;;;;;4929481;29;20067;-86
2021/05/27 08:43:46;;;;;;;12.52;3.78;;;10.00;99.90;;;;;;4923032;29;20036;-86
2021/05/27 08:46:11;;;;;;;13.07;3.20;;;10.10;99.90;;;;;;4932177;29;20036;-86
2021/05/27 08:48:37;;;;;;;17.15;3.78;;;10.20;99.90;;;;;;4949330;29;20042;-84
2021/05/27 08:51:03;;;;;;;11.55;3.65;;;10.30;99.90;;;;;;4948072;29;20090;-87
2021/05/27 08:53:29;;;;;;;11.70;3.58;;;10.40;99.90;;;;;;4932195;29;20035;-87
2021/05/27 08:55:54;;;;;;;13.52;3.90;;;10.40;99.90;;;;;;4916557;29;20052;-84
2021/05/27 08:58:21;;;;;;;14.10;3.55;;;10.40;99.90;;;;;;4949167;29;20055;-87
2021/05/27 09:00:47;;;;;;;13.13;2.88;;;10.30;99.90;;;;;;4949123;29;20036;-84
2021/05/27 09:03:15;;;;;;;10.32;3.13;;;10.30;99.90;;;;;;4931787;29;20032;-85
2021/05/27 09:05:40;;;;;;;11.88;2.50;;;10.30;99.90;;;;;;4931654;29;20035;-85
2021/05/27 09:08:08;;;;;;;10.98;2.95;;;10.20;99.90;;;;;;4912561;29;20051;-86
2021/05/27 09:10:48;;;;;;;14.85;3.38;;;10.30;99.90;;;;;;4928546;29;20032;-85
2021/05/27 09:13:19;;;;;;;10.45;3.15;;;10.20;99.90;;;;;;4928021;29;20063;-86
2021/05/27 09:15:49;;;;;;;11.18;3.00;;;10.30;99.90;;;;;;4912774;29;20084;-87
2021/05/27 09:18:28;;;;;;;16.58;3.80;;;10.50;99.90;;;;;;4928696;29;20036;-88
2021/05/27 09:20:54;;;;;;;10.07;3.90;;;10.50;99.90;;;;;;4928544;29;20039;-84
2021/05/27 09:23:22;;;;;;;13.63;3.40;;;10.50;99.90;;;;;;4928340;29;20044;-86
2021/05/27 09:25:53;;;;;;;13.23;3.78;;;10.60;99.90;;;;;;4912400;29;20032;-88
2021/05/27 09:28:24;;;;;;;11.95;4.00;;;10.70;99.90;;;;;;4929483;29;20040;-85
2021/05/27 09:30:54;;;;;;;15.32;3.95;;;10.70;99.90;;;;;;4928247;29;20039;-85
2021/05/27 09:33:29;;;;;;;13.77;3.80;;;10.60;99.90;;;;;;4929431;29;20046;-87
2021/05/27 09:36:16;;;;;;;11.93;3.33;;;10.50;99.90;;;;;;4927837;29;20068;-85
2021/05/27 09:38:57;;;;;;;13.73;4.15;;;10.60;99.90;;;;;;4929496;29;20397;-82
2021/05/27 09:41:25;;;;;;;9.70;3.30;;;10.60;99.90;;;;;;4928199;29;20091;-83
2021/05/27 09:43:56;;;;;;;11.75;3.78;;;10.50;99.90;;;;;;4927979;29;20032;-86
2021/05/27 09:46:23;;;;;;;11.13;2.72;;;10.50;99.90;;;;;;4929334;29;20047;-83
2021/05/27 09:49:25;;;;;;;13.32;2.97;;;10.50;99.90;;;;;;4943918;29;20040;-85
2021/05/27 09:51:56;;;;;;;14.25;3.38;;;10.50;99.90;;;;;;4914220;29;20051;-85
2021/05/27 09:54:23;;;;;;;12.40;3.13;;;10.60;99.90;;;;;;4929002;29;20091;-85
2021/05/27 09:56:49;;;;;;;14.45;3.90;;;10.80;99.90;;;;;;4912376;29;20032;-84
2021/05/27 09:59:16;;;;;;;13.73;3.53;;;10.60;99.90;;;;;;4943684;29;20039;-83
2021/05/27 10:02:11;;;;;;;10.73;4.03;;;10.50;99.90;;;;;;4943644;29;20040;-83
2021/05/27 10:04:36;;;;;;;15.93;4.80;;;10.50;99.90;;;;;;4927992;29;20396;-86
2021/05/27 10:07:02;;;;;;;12.52;4.60;;;10.50;99.90;;;;;;4943076;29;20048;-84
2021/05/27 10:09:28;;;;;;;16.00;4.72;;;10.50;99.90;;;;;;4912466;29;20040;-85
2021/05/27 10:11:54;;;;;;;14.18;4.32;;;10.50;99.90;;;;;;4911786;29;20060;-86
2021/05/27 10:14:23;;;;;;;12.73;4.38;;;10.50;99.90;;;;;;4943346;29;20287;-85
2021/05/27 10:16:49;;;;;;;19.95;5.50;;;10.60;99.90;;;;;;4927656;29;20032;-87
2021/05/27 10:19:15;;;;;;;14.13;5.68;;;10.60;99.90;;;;;;4943347;29;20036;-84
2021/05/27 10:21:41;;;;;;;14.88;5.63;;;10.70;99.90;;;;;;4943460;29;20192;-84
2021/05/27 10:24:08;;;;;;;18.30;6.45;;;10.80;99.90;;;;;;4911519;29;20441;-83
2021/05/27 10:26:33;;;;;;;12.07;5.00;;;10.80;99.90;;;;;;4926499;29;20044;-84
2021/05/27 10:29:01;;;;;;;18.45;6.88;;;10.90;99.90;;;;;;4927281;29;20095;-85
2021/05/27 10:31:27;;;;;;;15.95;6.28;;;10.70;99.90;;;;;;4927419;29;20036;-84
2021/05/27 10:33:54;;;;;;;18.02;7.95;;;10.70;99.90;;;;;;4927264;29;20032;-84
2021/05/27 10:36:20;;;;;;;17.92;6.97;;;10.70;99.90;;;;;;4927046;29;20500;-84
2021/05/27 10:38:49;;;;;;;16.05;7.07;;;10.70;99.90;;;;;;4927364;29;20047;-85
2021/05/27 10:41:41;;;;;;;22.70;7.60;;;10.70;99.90;;;;;;4927458;29;20036;-86
2021/05/27 10:44:10;;;;;;;19.77;8.43;;;10.70;99.90;;;;;;4927031;29;20116;-84
2021/05/27 10:46:42;;;;;;;25.88;8.98;;;10.80;99.90;;;;;;4927041;29;20036;-84
2021/05/27 10:49:08;;;;;;;24.17;7.38;;;10.90;99.90;;;;;;4927431;29;20032;-85
2021/05/27 10:51:36;;;;;;;18.27;7.53;;;11.00;99.90;;;;;;4927414;29;20103;-84
2021/05/27 10:54:07;;;;;;;19.95;6.68;;;11.00;99.90;;;;;;4927172;29;20043;-85
2021/05/27 10:56:33;;;;;;;18.00;6.60;;;11.10;99.90;;;;;;4927217;29;20036;-85
2021/05/27 10:58:59;;;;;;;19.63;6.38;;;10.90;99.90;;;;;;4927294;29;20029;-85
2021/05/27 11:01:37;;;;;;;16.80;6.18;;;10.90;99.90;;;;;;4927143;29;20043;-84
2021/05/27 11:04:07;;;;;;;17.73;5.80;;;10.80;99.90;;;;;;4928192;29;20032;-83
2021/05/27 11:06:40;;;;;;;17.70;6.57;;;10.80;99.90;;;;;;4932653;29;20059;-83
2021/05/27 11:09:23;;;;;;;17.65;6.50;;;10.70;99.90;;;;;;4930596;29;20358;-83
2021/05/27 11:11:58;;;;;;;16.38;5.72;;;10.70;99.90;;;;;;4946235;29;20369;-84
2021/05/27 11:14:34;;;;;;;17.40;5.57;;;10.70;99.90;;;;;;4947340;29;20099;-84
2021/05/27 11:17:03;;;;;;;21.35;6.60;;;10.60;99.90;;;;;;4946143;29;20147;-84
2021/05/27 11:25:12;;;;;;;19.65;7.75;;;10.70;99.90;;;;;;4923113;29;20056;-84
2021/05/27 11:27:53;;;;;;;18.75;8.23;;;10.70;99.90;;;;;;4911099;29;20119;-85
2021/05/27 11:30:27;;;;;;;17.15;6.97;;;10.70;99.90;;;;;;4911680;29;20040;-86
2021/05/27 11:33:04;;;;;;;17.08;6.68;;;10.80;99.90;;;;;;4928302;29;20036;-87
2021/05/27 11:35:51;;;;;;;17.23;6.85;;;10.80;99.90;;;;;;4911096;29;20060;-83
2021/05/27 11:38:26;;;;;;;14.65;6.72;;;11.00;99.90;;;;;;4914507;29;20046;-84
2021/05/27 11:40:55;;;;;;;18.20;6.28;;;10.80;99.90;;;;;;4914486;29;20036;-84
2021/05/27 11:43:41;;;;;;;12.23;6.03;;;10.80;99.90;;;;;;4914791;29;20043;-84
2021/05/27 11:46:12;;;;;;;11.85;5.25;;;10.80;99.90;;;;;;4933502;29;20039;-84
2021/05/27 11:48:56;;;;;;;14.30;5.93;;;10.80;99.90;;;;;;4949147;29;20047;-84
2021/05/27 11:51:39;;;;;;;15.23;5.35;;;11.00;99.90;;;;;;4933123;29;20046;-83
2021/05/27 11:54:10;;;;;;;19.20;6.80;;;11.10;99.90;;;;;;4917431;29;20108;-84
2021/05/27 11:56:42;;;;;;;12.25;5.63;;;11.20;99.90;;;;;;4949046;29;20031;-84
2021/05/27 11:59:11;;;;;;;16.23;6.18;;;11.30;99.90;;;;;;4916988;29;20481;-86
2021/05/27 12:01:39;;;;;;;13.98;5.03;;;11.30;99.90;;;;;;4933180;29;20050;-84
2021/05/27 12:04:12;;;;;;;13.52;5.40;;;11.50;99.90;;;;;;4932612;29;20026;-81
2021/05/27 12:06:53;;;;;;;9.82;3.67;;;11.80;99.90;;;;;;4945232;29;20052;-85
2021/05/27 12:09:26;;;;;;;10.68;4.13;;;11.70;99.90;;;;;;4913960;29;20491;-85
2021/05/27 12:11:52;;;;;;;10.30;3.50;;;12.00;99.90;;;;;;4930957;29;20075;-83
2021/05/27 12:14:18;;;;;;;8.70;3.38;;;12.10;99.90;;;;;;4928860;29;20043;-82
2021/05/27 12:16:44;;;;;;;8.43;3.65;;;12.20;99.90;;;;;;4929369;29;20036;-84
2021/05/27 12:19:13;;;;;;;9.30;3.40;;;12.10;99.90;;;;;;4913692;29;20051;-84
2021/05/27 12:21:54;;;;;;;14.33;4.83;;;12.20;99.90;;;;;;4929588;29;20052;-86
2021/05/27 12:24:22;;;;;;;10.07;4.95;;;12.10;99.90;;;;;;4913534;29;20051;-85
2021/05/27 12:26:48;;;;;;;9.13;3.42;;;11.90;99.90;;;;;;4929218;29;20036;-85
2021/05/27 12:29:14;;;;;;;8.38;2.88;;;12.10;99.90;;;;;;4928923;29;20035;-82
2021/05/27 12:31:40;;;;;;;10.85;3.58;;;12.00;99.90;;;;;;4929442;29;20048;-83
2021/05/27 12:34:07;;;;;;;8.02;3.15;;;11.80;99.90;;;;;;4928810;29;20087;-84
2021/05/27 12:37:00;;;;;;;8.10;3.08;;;11.80;99.90;;;;;;4929017;29;20040;-83
2021/05/27 12:39:37;;;;;;;10.20;3.60;;;12.00;99.90;;;;;;4930130;29;20040;-86
2021/05/27 12:42:06;;;;;;;10.63;3.10;;;11.80;99.90;;;;;;4944722;29;20083;-85
2021/05/27 12:44:41;;;;;;;8.17;2.50;;;11.80;99.90;;;;;;4913125;29;20366;-84
2021/05/27 12:47:18;;;;;;;11.65;3.25;;;11.90;99.90;;;;;;4921305;29;20319;-84
2021/05/27 12:49:45;;;;;;;6.57;1.70;;;11.90;99.90;;;;;;4912254;29;20064;-84
2021/05/27 12:52:11;;;;;;;7.03;2.30;;;12.10;99.90;;;;;;4944562;29;20028;-83
2021/05/27 12:54:37;;;;;;;6.40;2.08;;;12.30;99.90;;;;;;4928316;29;20091;-83
2021/05/27 12:57:07;;;;;;;8.77;2.50;;;12.50;99.90;;;;;;4928475;29;20033;-84
2021/05/27 12:59:34;;;;;;;9.65;2.60;;;12.40;99.90;;;;;;4928783;29;20036;-83
2021/05/27 13:02:02;;;;;;;6.57;1.92;;;12.40;99.90;;;;;;4928507;29;20040;-82
2021/05/27 13:04:35;;;;;;;8.32;1.70;;;12.40;99.90;;;;;;4928292;29;20063;-82